Terminal Aerodrome Forecast
Issued by NWS

Home | Current Version | Previous Version | Text Only | Print | Product List | Glossary On
Versions: 1 2 3 4 5 6 7 8 9 10 11 12 13 14 15 16
000
FTUS44 KCRP 191700
TAFLRD
TAF
KLRD 191720Z 1918/2018 15010KT P6SM SCT025 BKN250
      TEMPO 1918/1920 BKN025
     FM192100 15013KT P6SM VCSH SCT040 BKN180
     FM200200 13010KT P6SM BKN050 OVC250=

USA.gov is the U.S. government's official web portal to all federal, state and local government web resources and services.